createdAt,value
2018-04-23T04:09:29.661Z,60
2018-04-23T04:09:55.756Z,64
2018-04-23T04:10:21.181Z,68
2018-04-23T04:10:46.605Z,68
2018-04-23T04:11:12.167Z,76
2018-04-23T04:11:37.655Z,72
2018-04-23T04:12:03.158Z,76
2018-04-23T04:12:28.642Z,76
2018-04-23T04:12:54.254Z,80
2018-04-23T04:13:19.773Z,84
2018-04-23T04:13:45.238Z,84
2018-04-23T04:14:10.716Z,88
2018-04-23T04:14:36.225Z,92
2018-04-23T04:15:01.684Z,100
2018-04-23T04:15:27.046Z,100
2018-04-23T04:15:52.532Z,104
2018-04-23T04:16:18.028Z,104
2018-04-23T04:16:43.492Z,112
2018-04-23T04:17:08.913Z,112
2018-04-23T04:17:34.368Z,116
2018-04-23T04:17:59.848Z,120
2018-04-23T04:18:25.372Z,124
2018-04-23T04:18:50.783Z,128
2018-04-23T04:19:16.218Z,136
2018-04-23T04:19:41.719Z,144
2018-04-23T04:20:07.194Z,144
2018-04-23T04:20:32.781Z,152
2018-04-23T04:20:58.216Z,156
2018-04-23T04:21:23.703Z,164
2018-04-23T04:21:49.193Z,176
2018-04-23T04:22:14.669Z,184
2018-04-23T04:22:40.100Z,192
2018-04-23T04:23:05.612Z,204
2018-04-23T04:23:31.090Z,212
2018-04-23T04:23:56.511Z,228
2018-04-23T04:24:22.002Z,240
2018-04-23T04:24:47.511Z,252
2018-04-23T04:25:12.882Z,268
2018-04-23T04:25:38.380Z,276
2018-04-23T04:26:03.953Z,292
2018-04-23T04:26:29.444Z,296
2018-04-23T04:26:54.977Z,304
2018-04-23T04:27:20.492Z,316
2018-04-23T04:27:45.991Z,328
2018-04-23T04:28:11.490Z,344
2018-04-23T04:28:36.935Z,372
2018-04-23T04:29:02.361Z,392
2018-04-23T04:29:27.907Z,412
2018-04-23T04:29:53.335Z,424
2018-04-23T04:30:18.904Z,436
2018-04-23T04:30:44.267Z,436
2018-04-23T04:31:09.750Z,444
2018-04-23T04:31:35.253Z,448
2018-04-23T04:32:00.715Z,448
2018-04-23T04:32:26.169Z,452
2018-04-23T04:32:51.695Z,456
2018-04-23T04:33:17.196Z,460
2018-04-23T04:33:42.671Z,468
2018-04-23T04:34:08.105Z,480
2018-04-23T04:34:33.615Z,492
2018-04-23T04:34:59.225Z,516
2018-04-23T04:35:24.849Z,540
2018-04-23T04:35:50.633Z,560
2018-04-23T04:36:16.298Z,568
2018-04-23T04:36:41.974Z,560
2018-04-23T04:37:08.136Z,520
2018-04-23T04:37:34.383Z,472
2018-04-23T04:38:00.282Z,432
2018-04-23T04:38:26.090Z,396
2018-04-23T04:38:51.880Z,364
2018-04-23T04:39:17.795Z,344
2018-04-23T04:39:44.265Z,340
2018-04-23T04:40:10.288Z,336
2018-04-23T04:40:36.789Z,344
2018-04-23T04:41:04.126Z,348
2018-04-23T04:41:30.209Z,352
2018-04-23T04:41:56.974Z,356
2018-04-23T04:42:23.140Z,352
2018-04-23T04:42:54.313Z,356
2018-04-23T04:43:34.023Z,372
2018-04-23T04:44:08.158Z,380
2018-04-23T04:44:56.715Z,368
2018-04-23T04:45:22.596Z,364
2018-04-23T04:45:48.330Z,372
2018-04-23T04:46:14.276Z,376
2018-04-23T04:46:40.212Z,380
2018-04-23T04:47:05.956Z,388
2018-04-23T04:47:31.463Z,400
2018-04-23T04:47:59.038Z,420
2018-04-23T04:48:25.891Z,436
2018-04-23T04:48:55.423Z,460
2018-04-23T04:49:20.878Z,480
2018-04-23T04:49:48.806Z,500
2018-04-23T04:51:31.607Z,520
2018-04-23T04:51:56.859Z,512
2018-04-23T04:52:22.719Z,500
2018-04-23T04:52:49.268Z,500
2018-04-23T04:53:15.525Z,492
2018-04-23T04:53:41.459Z,488
2018-04-23T04:54:07.953Z,492
2018-04-23T04:54:33.841Z,508
2018-04-23T04:55:00.337Z,544
2018-04-23T04:55:26.280Z,584
2018-04-23T04:55:52.359Z,604
2018-04-23T04:56:18.499Z,616
2018-04-23T04:56:44.638Z,632
2018-04-23T04:57:11.120Z,668
2018-04-23T04:57:38.065Z,720
2018-04-23T04:58:04.688Z,784
2018-04-23T04:58:30.584Z,860
2018-04-23T04:58:56.739Z,964
2018-04-23T04:59:22.963Z,1068
2018-04-23T04:59:49.054Z,1176
2018-04-23T05:00:15.375Z,1284
2018-04-23T05:00:42.019Z,1396
2018-04-23T05:01:07.673Z,1436
2018-04-23T05:01:34.064Z,1448
2018-04-23T05:01:59.643Z,1412
2018-04-23T05:02:26.399Z,1412
2018-04-23T05:02:52.415Z,1400
2018-04-23T05:03:18.210Z,1340
2018-04-23T05:03:44.018Z,1280
2018-04-23T05:04:10.449Z,1244
2018-04-23T05:04:36.566Z,1212
2018-04-23T05:05:02.245Z,1196
2018-04-23T05:05:28.006Z,1164
2018-04-23T05:05:53.619Z,1160
2018-04-23T05:06:19.392Z,1156
2018-04-23T05:06:44.882Z,1152
2018-04-23T05:07:10.907Z,1160
2018-04-23T05:07:37.053Z,1180
2018-04-23T05:08:02.833Z,1204
2018-04-23T05:08:28.897Z,1236
2018-04-23T05:08:54.337Z,1280
2018-04-23T05:09:20.067Z,1360
2018-04-23T05:09:45.884Z,1468
2018-04-23T05:10:11.699Z,1564
2018-04-23T05:10:37.528Z,1652
2018-04-23T05:11:03.427Z,1696
2018-04-23T05:11:29.152Z,1736
2018-04-23T05:11:55.274Z,1768
2018-04-23T05:12:21.498Z,1800
2018-04-23T05:12:47.258Z,1876
2018-04-23T05:13:12.890Z,2000
2018-04-23T05:13:38.528Z,2112
2018-04-23T05:14:04.404Z,2172
2018-04-23T05:14:30.081Z,2248
2018-04-23T05:14:55.699Z,2284
2018-04-23T05:15:21.671Z,2300
2018-04-23T05:15:47.719Z,2264
2018-04-23T05:16:13.830Z,2228
2018-04-23T05:16:39.465Z,2128
2018-04-23T05:17:05.240Z,2032
2018-04-23T05:17:31.037Z,2000
2018-04-23T05:17:56.742Z,1952
2018-04-23T05:18:22.474Z,1936
2018-04-23T05:18:48.031Z,1956
2018-04-23T05:19:14.038Z,1956
2018-04-23T05:19:39.365Z,1952
2018-04-23T05:20:05.210Z,1924
2018-04-23T05:20:31.281Z,1900
2018-04-23T05:20:56.932Z,1900
2018-04-23T05:21:22.665Z,1904
2018-04-23T05:21:48.385Z,1920
2018-04-23T05:22:14.281Z,1960
2018-04-23T05:22:39.975Z,2024
2018-04-23T05:23:05.727Z,2124
2018-04-23T05:23:31.511Z,2240
2018-04-23T05:23:57.282Z,2404
2018-04-23T05:24:22.946Z,2516
2018-04-23T05:24:49.205Z,2608
2018-04-23T05:25:14.512Z,2740
2018-04-23T05:25:40.468Z,2812
2018-04-23T05:26:06.416Z,2836
2018-04-23T05:26:32.276Z,2812
2018-04-23T05:26:58.143Z,2760
2018-04-23T05:27:23.666Z,2712
2018-04-23T05:27:49.770Z,2644
2018-04-23T05:28:15.820Z,2536
2018-04-23T05:28:41.484Z,2536
2018-04-23T05:29:07.354Z,2532
2018-04-23T05:29:33.050Z,2556
2018-04-23T05:29:58.748Z,2660
2018-04-23T05:30:24.698Z,2888
2018-04-23T05:30:50.404Z,3180
2018-04-23T05:31:16.168Z,3472
2018-04-23T05:31:42.545Z,3744
2018-04-23T05:32:08.211Z,3920
2018-04-23T05:32:34.423Z,3916
2018-04-23T05:33:00.310Z,3996
2018-04-23T05:33:26.421Z,3888
2018-04-23T05:33:52.222Z,3968
2018-04-23T05:34:18.258Z,3964
2018-04-23T05:34:44.282Z,4056
2018-04-23T05:35:09.755Z,4116
2018-04-23T05:35:35.410Z,4176
2018-04-23T05:36:01.468Z,4276
2018-04-23T05:36:27.197Z,4368
2018-04-23T05:36:52.847Z,4308
2018-04-23T05:37:18.639Z,4180
2018-04-23T05:37:44.488Z,4176
2018-04-23T05:38:11.119Z,4208
2018-04-23T05:38:38.192Z,4148
2018-04-23T05:39:03.579Z,4208
2018-04-23T05:39:29.036Z,4284
2018-04-23T05:39:54.504Z,4516
2018-04-23T05:40:20.047Z,4624
2018-04-23T05:40:45.493Z,4688
2018-04-23T05:41:10.921Z,4740
2018-04-23T05:41:36.459Z,4832
2018-04-23T05:42:01.975Z,4976
2018-04-23T05:42:27.476Z,5136
2018-04-23T05:42:52.955Z,5100
2018-04-23T05:43:18.409Z,4952
2018-04-23T05:43:43.869Z,4732
2018-04-23T05:44:09.387Z,4468
2018-04-23T05:44:34.851Z,4232
2018-04-23T05:45:00.299Z,4120
2018-04-23T05:45:25.730Z,4100
2018-04-23T05:45:51.322Z,4000
2018-04-23T05:46:16.721Z,3824
2018-04-23T05:46:42.173Z,3736
2018-04-23T05:47:07.662Z,3748
2018-04-23T05:47:33.154Z,3716
2018-04-23T05:47:58.599Z,3844
2018-04-23T05:48:24.105Z,3924
2018-04-23T05:48:49.576Z,4008
2018-04-23T05:49:15.063Z,4028
2018-04-23T05:49:40.480Z,3908
2018-04-23T05:50:05.990Z,3808
2018-04-23T05:50:31.428Z,3780
2018-04-23T05:50:56.922Z,3860
2018-04-23T05:51:22.445Z,3892
2018-04-23T05:51:47.913Z,3996
2018-04-23T05:52:13.397Z,4096
2018-04-23T05:52:38.836Z,4144
2018-04-23T05:53:04.369Z,4260
2018-04-23T05:53:29.827Z,4372
2018-04-23T05:53:55.318Z,4520
2018-04-23T05:54:20.895Z,4692
2018-04-23T05:54:46.341Z,4820
2018-04-23T05:55:11.822Z,4900
2018-04-23T05:55:37.295Z,4924
2018-04-23T05:56:02.760Z,4856
2018-04-23T05:56:28.248Z,4704
2018-04-23T05:56:53.807Z,4620
2018-04-23T05:57:19.290Z,4556
2018-04-23T05:57:44.815Z,4552
2018-04-23T05:58:10.291Z,4508
2018-04-23T05:58:35.707Z,4472
2018-04-23T05:59:01.203Z,4428
2018-04-23T05:59:26.779Z,4464
2018-04-23T05:59:52.189Z,4572
2018-04-23T06:00:17.703Z,4640
2018-04-23T06:00:43.136Z,4764
2018-04-23T06:01:08.599Z,4892
2018-04-23T06:01:34.139Z,5140
2018-04-23T06:01:59.609Z,5428
2018-04-23T06:02:25.159Z,5624
2018-04-23T06:02:50.574Z,5684
2018-04-23T06:03:16.047Z,5624
2018-04-23T06:03:41.591Z,5476
2018-04-23T06:04:07.059Z,5344
2018-04-23T06:04:32.478Z,5248
2018-04-23T06:04:58.181Z,5140
2018-04-23T06:05:23.870Z,4960
2018-04-23T06:05:49.309Z,4772
2018-04-23T06:06:14.773Z,4736
2018-04-23T06:06:40.259Z,4628
2018-04-23T06:07:05.697Z,4680
2018-04-23T06:07:31.173Z,4768
2018-04-23T06:07:56.699Z,4636
2018-04-23T06:08:22.119Z,4632
2018-04-23T06:08:47.603Z,4708
2018-04-23T06:09:13.142Z,4816
2018-04-23T06:09:38.565Z,4856
2018-04-23T06:10:04.092Z,4944
2018-04-23T06:10:29.558Z,4972
2018-04-23T06:10:54.961Z,4936
2018-04-23T06:11:20.467Z,4944
2018-04-23T06:11:45.974Z,4816
2018-04-23T06:12:11.419Z,4756
2018-04-23T06:12:36.857Z,4612
2018-04-23T06:13:02.362Z,4564
2018-04-23T06:13:27.840Z,4504
2018-04-23T06:13:53.464Z,4512
2018-04-23T06:14:18.942Z,4564
2018-04-23T06:14:44.335Z,4628
2018-04-23T06:15:09.741Z,4700
2018-04-23T06:15:35.249Z,4732
2018-04-23T06:16:00.717Z,4776
2018-04-23T06:16:26.218Z,4688
2018-04-23T06:16:51.632Z,4680
2018-04-23T06:17:17.193Z,4776
2018-04-23T06:17:42.683Z,4780
2018-04-23T06:18:08.103Z,5008
2018-04-23T06:18:33.560Z,5384
2018-04-23T06:18:59.049Z,5660
2018-04-23T06:19:24.916Z,5876
2018-04-23T06:19:50.488Z,6196
2018-04-23T06:20:15.961Z,6212
2018-04-23T06:20:41.433Z,6148
2018-04-23T06:21:06.959Z,6044
2018-04-23T06:21:32.477Z,6160
2018-04-23T06:21:57.971Z,6060
2018-04-23T06:22:23.389Z,6296
2018-04-23T06:22:48.865Z,6040
2018-04-23T06:23:14.351Z,6048
2018-04-23T06:23:39.874Z,6396
2018-04-23T06:24:05.354Z,6092
2018-04-23T06:24:30.807Z,6092
2018-04-23T06:24:56.337Z,6384
2018-04-23T06:25:21.802Z,6916
2018-04-23T06:25:47.292Z,7380
2018-04-23T06:26:12.916Z,7524
2018-04-23T06:26:38.601Z,7220
2018-04-23T06:27:04.362Z,6952
2018-04-23T06:27:29.692Z,6480
2018-04-23T06:27:55.519Z,6432
2018-04-23T06:28:21.104Z,6860
2018-04-23T06:28:46.783Z,7304
2018-04-23T06:29:13.678Z,7624
2018-04-23T06:29:40.038Z,8364
2018-04-23T06:30:05.816Z,8968
2018-04-23T06:30:31.515Z,9816
2018-04-23T06:30:57.168Z,10492
2018-04-23T06:31:23.157Z,10288
2018-04-23T06:31:48.696Z,9692
2018-04-23T06:32:14.519Z,8392
2018-04-23T06:32:40.840Z,7288
2018-04-23T06:33:06.671Z,6264
2018-04-23T06:33:32.220Z,5520
2018-04-23T06:33:57.876Z,4952
2018-04-23T06:34:23.746Z,4792
2018-04-23T06:34:49.087Z,5212
2018-04-23T06:35:15.192Z,5704
2018-04-23T06:35:40.715Z,5764
2018-04-23T06:36:06.227Z,5508
2018-04-23T06:36:32.102Z,5408
2018-04-23T06:36:58.058Z,5460
2018-04-23T06:37:23.575Z,5520
2018-04-23T06:37:49.195Z,5400
2018-04-23T06:38:14.977Z,5452
2018-04-23T06:38:40.988Z,5412
2018-04-23T06:39:06.533Z,5212
2018-04-23T06:39:32.223Z,5272
2018-04-23T06:39:57.955Z,5484
2018-04-23T06:40:23.808Z,5428
2018-04-23T06:40:49.310Z,5420
2018-04-23T06:41:14.815Z,5288
2018-04-23T06:41:40.441Z,5200
2018-04-23T06:42:06.315Z,4504
2018-04-23T06:42:32.372Z,4088
2018-04-23T06:42:58.347Z,4560
2018-04-23T06:43:23.969Z,5188
2018-04-23T06:43:49.700Z,5212
2018-04-23T06:44:15.416Z,4724
2018-04-23T06:44:41.459Z,4440
2018-04-23T06:45:07.230Z,4364
2018-04-23T06:45:32.787Z,4484
2018-04-23T06:45:58.336Z,4264
2018-04-23T06:46:23.911Z,3908
2018-04-23T06:46:49.680Z,3804
2018-04-23T06:47:15.237Z,3960
2018-04-23T06:47:41.060Z,4140
2018-04-23T06:48:06.570Z,3960
2018-04-23T06:48:32.583Z,3684
2018-04-23T06:48:58.480Z,3556
2018-04-23T06:49:24.794Z,3708
2018-04-23T06:49:50.576Z,4140
2018-04-23T06:50:16.675Z,4436
2018-04-23T06:50:42.854Z,4388
2018-04-23T06:51:08.357Z,3964
2018-04-23T06:51:34.310Z,3364
2018-04-23T06:51:59.943Z,3244
2018-04-23T06:52:26.118Z,3444
2018-04-23T06:52:51.850Z,3872
2018-04-23T06:53:17.432Z,4272
2018-04-23T06:53:43.471Z,4636
2018-04-23T06:54:09.266Z,4804
2018-04-23T06:54:34.886Z,4888
2018-04-23T06:55:00.470Z,4960
2018-04-23T06:55:26.074Z,4868
2018-04-23T06:55:51.656Z,5128
2018-04-23T06:56:17.211Z,5260
2018-04-23T06:56:43.402Z,5284
2018-04-23T06:57:08.772Z,5132
2018-04-23T06:57:34.889Z,4980
2018-04-23T06:58:01.016Z,4800
2018-04-23T06:58:26.978Z,4736
2018-04-23T06:58:52.412Z,4716
2018-04-23T06:59:18.217Z,4868
